Time;durP1;ratioP1;P1;durP2;ratioP2;P2;SDS_P1;SDS_P2;PMS_P1;PMS_P2;Temp;Humidity;BMP_temperature;BMP_pressure;BME280_temperature;BME280_humidity;BME280_pressure;Samples;Min_cycle;Max_cycle;Signal;HPM_P1;HPM_P2
2022/10/18 00:00:00;;;;;;;8.48;3.17;;;;;16.00;95009.00;;;;7390831;19;20132;-75
2022/10/18 00:02:28;;;;;;;4.07;2.78;;;;;15.90;95009.00;;;;7390437;19;20144;-76
2022/10/18 00:04:55;;;;;;;8.32;3.17;;;;;16.10;95006.00;;;;7391669;19;20208;-78
2022/10/18 00:07:29;;;;;;;6.40;2.92;;;;;16.10;95003.00;;;;7395221;19;20152;-76
2022/10/18 00:09:57;;;;;;;6.72;3.45;;;;;16.30;95001.00;;;;7398059;19;20153;-76
2022/10/18 00:12:24;;;;;;;6.97;3.15;;;;;16.10;94999.00;;;;7400718;19;20125;-75
2022/10/18 00:15:04;;;;;;;5.53;2.55;;;;;16.10;95002.00;;;;7400189;19;20124;-76
2022/10/18 00:17:34;;;;;;;6.93;2.63;;;;;16.20;95004.00;;;;7396943;19;20159;-74
2022/10/18 00:20:01;;;;;;;8.10;2.85;;;;;16.40;95016.00;;;;7397561;19;20125;-75
2022/10/18 00:22:43;;;;;;;7.30;3.15;;;;;16.50;95012.00;;;;7401120;19;20120;-75
2022/10/18 00:25:10;;;;;;;5.63;3.42;;;;;16.50;95006.00;;;;7396946;19;20128;-76
2022/10/18 00:27:44;;;;;;;5.60;2.63;;;;;16.40;95004.00;;;;7396403;19;20165;-76
2022/10/18 00:30:11;;;;;;;3.70;2.67;;;;;16.60;95001.00;;;;7398610;19;20129;-77
2022/10/18 00:32:40;;;;;;;6.40;2.88;;;;;16.50;95005.00;;;;7398111;19;20220;-75
2022/10/18 00:35:32;;;;;;;5.85;2.92;;;;;16.60;95011.00;;;;7399010;19;20156;-76
2022/10/18 00:38:00;;;;;;;4.20;3.00;;;;;16.60;95006.00;;;;7396955;19;20149;-75
2022/10/18 00:40:40;;;;;;;12.43;3.03;;;;;16.70;95008.00;;;;7395295;19;20184;-76
2022/10/18 00:43:17;;;;;;;7.78;2.67;;;;;16.70;95020.00;;;;7399174;19;20136;-76
2022/10/18 00:45:50;;;;;;;8.85;2.65;;;;;16.60;95011.00;;;;7398283;19;20729;-76
2022/10/18 00:48:19;;;;;;;7.20;2.70;;;;;16.50;95010.00;;;;7399100;19;20133;-74
2022/10/18 00:50:51;;;;;;;5.32;2.67;;;;;16.50;95019.00;;;;7400087;19;20133;-74
2022/10/18 00:53:27;;;;;;;10.15;2.85;;;;;16.30;95022.00;;;;7395850;19;20136;-76
2022/10/18 00:55:55;;;;;;;9.60;2.88;;;;;16.10;95024.00;;;;7396485;19;20141;-75
2022/10/18 00:58:23;;;;;;;5.35;2.80;;;;;16.00;95023.00;;;;7399441;19;20217;-75
2022/10/18 01:00:57;;;;;;;9.90;3.10;;;;;16.10;95021.00;;;;7398266;19;20150;-74
2022/10/18 01:03:25;;;;;;;6.40;2.95;;;;;16.00;95018.00;;;;7396884;19;20138;-75
2022/10/18 01:06:01;;;;;;;5.93;2.60;;;;;15.90;95022.00;;;;7395987;19;20208;-73
2022/10/18 01:08:57;;;;;;;6.10;2.50;;;;;16.00;95021.00;;;;7397482;19;20178;-74
2022/10/18 01:12:00;;;;;;;6.00;2.58;;;;;16.00;95023.00;;;;7395978;19;20129;-74
2022/10/18 01:15:05;;;;;;;4.53;2.70;;;;;15.90;95015.00;;;;7397857;19;20157;-73
2022/10/18 01:17:47;;;;;;;3.78;2.42;;;;;15.90;95022.00;;;;7396060;19;20129;-74
2022/10/18 01:21:14;;;;;;;6.40;2.60;;;;;16.00;95022.00;;;;7396311;19;20177;-74
2022/10/18 01:24:12;;;;;;;4.15;2.10;;;;;16.10;95016.00;;;;7396452;19;20164;-74
2022/10/18 01:27:19;;;;;;;6.70;2.33;;;;;16.30;95009.00;;;;7398411;19;20148;-73
2022/10/18 01:30:01;;;;;;;8.88;2.17;;;;;16.50;95004.00;;;;7399253;19;20163;-73
2022/10/18 01:32:51;;;;;;;2.83;1.92;;;;;16.70;95001.00;;;;7396159;19;20189;-73
2022/10/18 01:35:25;;;;;;;4.00;2.17;;;;;16.70;95002.00;;;;7394063;19;20144;-72
2022/10/18 01:38:01;;;;;;;4.20;2.17;;;;;16.80;95002.00;;;;7396283;19;20169;-73
2022/10/18 01:40:46;;;;;;;3.08;2.15;;;;;16.70;94993.00;;;;7390042;19;20153;-73
2022/10/18 01:43:23;;;;;;;5.13;2.72;;;;;16.80;95005.00;;;;7396938;19;20144;-73
2022/10/18 01:45:53;;;;;;;3.45;2.03;;;;;16.90;94996.00;;;;7394713;19;20244;-73
2022/10/18 01:48:29;;;;;;;5.70;2.30;;;;;16.90;94996.00;;;;7393404;19;20160;-73
2022/10/18 01:50:56;;;;;;;9.05;2.15;;;;;17.00;94997.00;;;;7394269;19;20181;-75
2022/10/18 01:53:32;;;;;;;5.93;2.30;;;;;17.00;94994.00;;;;7397969;19;20155;-72
2022/10/18 01:56:05;;;;;;;6.65;2.17;;;;;16.90;94990.00;;;;7398328;19;20200;-74
2022/10/18 01:59:05;;;;;;;4.97;1.95;;;;;17.10;94982.00;;;;7393990;19;20160;-74
2022/10/18 02:02:11;;;;;;;3.50;2.28;;;;;17.00;94987.00;;;;7395681;19;20264;-73
2022/10/18 02:04:58;;;;;;;6.57;2.20;;;;;17.00;94983.00;;;;7395401;19;20129;-74
2022/10/18 02:07:47;;;;;;;3.95;1.77;;;;;17.10;94980.00;;;;7398648;19;20133;-74
2022/10/18 02:10:54;;;;;;;4.70;2.00;;;;;17.10;94982.00;;;;7394779;19;20152;-74
2022/10/18 02:13:34;;;;;;;6.35;1.67;;;;;17.00;94986.00;;;;7393253;19;20133;-74
2022/10/18 02:16:10;;;;;;;5.50;2.13;;;;;17.00;94983.00;;;;7397399;19;20128;-74
2022/10/18 02:18:50;;;;;;;3.70;2.13;;;;;16.90;94981.00;;;;7396042;19;20125;-74
2022/10/18 02:21:20;;;;;;;4.32;2.28;;;;;16.80;94989.00;;;;7394707;19;20148;-73
2022/10/18 02:23:57;;;;;;;3.80;2.25;;;;;16.80;94984.00;;;;7396231;19;20129;-74
2022/10/18 02:26:28;;;;;;;6.50;2.30;;;;;16.50;94978.00;;;;7392243;19;20144;-75
2022/10/18 02:29:02;;;;;;;6.65;2.00;;;;;16.60;94980.00;;;;7395872;19;20149;-74
2022/10/18 02:31:42;;;;;;;5.22;2.22;;;;;16.40;94969.00;;;;7395513;19;20132;-74
2022/10/18 02:34:19;;;;;;;4.97;2.05;;;;;16.20;94970.00;;;;7393501;19;20131;-75
2022/10/18 02:36:58;;;;;;;3.35;2.25;;;;;16.00;94966.00;;;;7394157;19;20147;-73
2022/10/18 02:39:36;;;;;;;7.25;2.30;;;;;15.90;94977.00;;;;7395708;19;20515;-74
2022/10/18 02:42:12;;;;;;;8.02;2.15;;;;;15.70;94973.00;;;;7391619;19;20183;-74
2022/10/18 02:44:55;;;;;;;3.53;2.20;;;;;15.50;94974.00;;;;7392383;19;20153;-74
2022/10/18 02:47:22;;;;;;;3.15;1.98;;;;;15.50;94974.00;;;;7393953;19;20132;-75
2022/10/18 02:49:49;;;;;;;3.75;2.50;;;;;15.40;94978.00;;;;7394748;19;20544;-73
2022/10/18 02:52:24;;;;;;;4.07;1.90;;;;;15.40;94965.00;;;;7390153;19;20152;-74
2022/10/18 02:54:51;;;;;;;5.43;2.42;;;;;15.40;94965.00;;;;7393156;19;20144;-74
2022/10/18 02:57:18;;;;;;;6.15;2.63;;;;;15.50;94971.00;;;;7395852;19;20143;-75
2022/10/18 02:59:53;;;;;;;4.15;2.17;;;;;15.80;94970.00;;;;7394216;19;20148;-73
2022/10/18 03:02:22;;;;;;;6.60;2.30;;;;;15.90;94970.00;;;;7393265;19;20133;-73
2022/10/18 03:04:50;;;;;;;7.13;2.38;;;;;15.90;94969.00;;;;7394018;19;20121;-73
2022/10/18 03:07:31;;;;;;;8.07;2.20;;;;;15.80;94973.00;;;;7394058;19;20133;-74
2022/10/18 03:09:59;;;;;;;5.75;2.28;;;;;15.90;94976.00;;;;7396369;19;20128;-73
2022/10/18 03:12:26;;;;;;;4.05;2.13;;;;;16.10;94972.00;;;;7390270;19;20176;-73
2022/10/18 03:15:00;;;;;;;6.30;2.33;;;;;16.10;94974.00;;;;7393770;19;20465;-73
2022/10/18 03:17:35;;;;;;;9.93;2.28;;;;;16.20;94963.00;;;;7394386;19;20157;-74
2022/10/18 03:20:02;;;;;;;2.88;2.20;;;;;16.10;94961.00;;;;7394912;19;20132;-73
2022/10/18 03:22:39;;;;;;;7.28;2.55;;;;;16.00;94966.00;;;;7394130;19;20148;-73
2022/10/18 03:25:09;;;;;;;8.18;2.58;;;;;15.90;94963.00;;;;7396204;19;20143;-72
2022/10/18 03:27:36;;;;;;;13.73;2.45;;;;;16.00;94960.00;;;;7396119;19;20627;-74
2022/10/18 03:30:12;;;;;;;3.28;2.10;;;;;16.00;94966.00;;;;7395102;19;20117;-72
2022/10/18 03:32:40;;;;;;;4.82;2.40;;;;;16.00;94963.00;;;;7392841;19;20143;-73
2022/10/18 03:35:08;;;;;;;5.85;2.17;;;;;16.10;94963.00;;;;7395106;19;20212;-75
2022/10/18 03:37:42;;;;;;;4.72;2.40;;;;;16.00;94966.00;;;;7396354;19;20156;-72
2022/10/18 03:40:12;;;;;;;3.88;2.20;;;;;16.10;94963.00;;;;7391456;19;20144;-74
2022/10/18 03:42:39;;;;;;;6.18;2.08;;;;;16.20;94969.00;;;;7391290;19;20166;-74
2022/10/18 03:45:13;;;;;;;6.53;2.42;;;;;16.20;94968.00;;;;7397124;19;20579;-73
2022/10/18 03:47:43;;;;;;;3.63;2.50;;;;;16.20;94961.00;;;;7394819;19;20127;-73
2022/10/18 03:50:11;;;;;;;4.07;2.40;;;;;16.10;94958.00;;;;7396146;19;20133;-74
2022/10/18 03:52:47;;;;;;;4.72;2.20;;;;;15.90;94966.00;;;;7393652;19;20156;-73
2022/10/18 03:55:17;;;;;;;3.05;2.30;;;;;16.00;94972.00;;;;7395411;19;20121;-73
2022/10/18 03:57:44;;;;;;;3.00;2.50;;;;;16.00;94973.00;;;;7394894;19;20648;-74
2022/10/18 04:00:18;;;;;;;5.53;2.40;;;;;16.00;94966.00;;;;7392775;19;20618;-74
2022/10/18 04:02:46;;;;;;;5.28;2.80;;;;;16.10;94969.00;;;;7391199;19;20152;-73
2022/10/18 04:05:23;;;;;;;9.57;2.90;;;;;15.90;94972.00;;;;7391708;19;20120;-74
2022/10/18 04:07:57;;;;;;;7.47;2.70;;;;;16.10;94974.00;;;;7394092;19;20133;-74
2022/10/18 04:10:27;;;;;;;5.35;2.47;;;;;15.90;94966.00;;;;7391506;19;20588;-74
2022/10/18 04:12:55;;;;;;;3.75;2.70;;;;;15.80;94970.00;;;;7389857;19;20137;-73
2022/10/18 04:15:28;;;;;;;4.20;2.55;;;;;15.70;94970.00;;;;7392272;19;20129;-74
2022/10/18 04:17:59;;;;;;;7.10;2.78;;;;;15.60;94980.00;;;;7393318;19;20149;-73
2022/10/18 04:20:27;;;;;;;5.35;2.60;;;;;15.50;94978.00;;;;7389788;19;20139;-75
2022/10/18 04:23:03;;;;;;;7.97;2.75;;;;;15.50;94979.00;;;;7392751;19;20611;-73
2022/10/18 04:25:31;;;;;;;6.53;2.60;;;;;15.50;94985.00;;;;7392516;19;20174;-74
2022/10/18 04:28:03;;;;;;;3.63;2.28;;;;;15.50;94986.00;;;;7392751;19;20125;-74
2022/10/18 04:30:37;;;;;;;5.55;2.47;;;;;15.50;94988.00;;;;7388477;19;20164;-75
2022/10/18 04:33:05;;;;;;;3.67;2.70;;;;;15.40;94985.00;;;;7392940;19;20515;-73
2022/10/18 04:35:32;;;;;;;12.60;2.97;;;;;15.20;94983.00;;;;7390727;19;20200;-74
2022/10/18 04:38:06;;;;;;;5.00;2.63;;;;;15.00;94986.00;;;;7391662;19;20144;-74
2022/10/18 04:40:40;;;;;;;4.28;2.45;;;;;14.80;94988.00;;;;7390926;19;20129;-74
2022/10/18 04:43:21;;;;;;;4.30;2.55;;;;;14.80;94990.00;;;;7389748;19;20132;-74
2022/10/18 04:45:53;;;;;;;5.10;2.80;;;;;14.70;94990.00;;;;7381495;19;20148;-74
2022/10/18 04:48:26;;;;;;;5.60;3.03;;;;;14.60;94989.00;;;;7389257;19;20147;-75
2022/10/18 04:50:54;;;;;;;5.60;3.05;;;;;14.50;94985.00;;;;7387373;19;20147;-72
2022/10/18 04:53:21;;;;;;;6.65;2.92;;;;;14.60;94990.00;;;;7394238;19;20129;-74
2022/10/18 04:55:55;;;;;;;4.85;2.88;;;;;14.40;94990.00;;;;7397826;19;20144;-73
2022/10/18 04:58:23;;;;;;;4.07;3.10;;;;;14.30;94992.00;;;;7395147;19;20176;-73
2022/10/18 05:00:50;;;;;;;3.63;3.03;;;;;14.30;94991.00;;;;7395616;19;20474;-73
2022/10/18 05:03:24;;;;;;;4.00;2.85;;;;;14.20;94993.00;;;;7397506;19;20165;-74
2022/10/18 05:05:53;;;;;;;3.72;2.80;;;;;14.00;94995.00;;;;7395336;19;20148;-73
2022/10/18 05:08:29;;;;;;;4.18;2.88;;;;;13.90;94992.00;;;;7395362;19;20148;-73
2022/10/18 05:11:06;;;;;;;4.80;3.22;;;;;13.70;94992.00;;;;7398741;19;20133;-73
2022/10/18 05:13:33;;;;;;;6.95;3.15;;;;;13.60;94993.00;;;;7396199;19;20137;-73
2022/10/18 05:16:01;;;;;;;6.88;3.45;;;;;13.80;94995.00;;;;7397604;19;20144;-73
2022/10/18 05:18:35;;;;;;;6.25;2.90;;;;;13.60;94985.00;;;;7395521;19;20162;-74
2022/10/18 05:21:05;;;;;;;5.05;3.58;;;;;13.50;95001.00;;;;7395888;19;20152;-73
2022/10/18 05:23:32;;;;;;;6.75;3.30;;;;;13.30;94995.00;;;;7398422;19;20133;-73
2022/10/18 05:26:07;;;;;;;4.97;3.28;;;;;13.10;94990.00;;;;7396027;19;20744;-73
2022/10/18 05:28:36;;;;;;;8.10;3.75;;;;;13.30;94995.00;;;;7397638;19;20157;-73
2022/10/18 05:31:08;;;;;;;4.38;3.63;;;;;13.40;94998.00;;;;7397261;19;20156;-73
2022/10/18 05:33:41;;;;;;;4.72;3.25;;;;;13.30;94988.00;;;;7398592;19;20127;-74
2022/10/18 05:36:09;;;;;;;7.20;3.83;;;;;13.20;94987.00;;;;7395010;19;20531;-73
2022/10/18 05:38:41;;;;;;;6.10;3.92;;;;;13.50;94990.00;;;;7395540;19;20155;-74
2022/10/18 05:41:22;;;;;;;9.52;4.05;;;;;13.40;94997.00;;;;7397578;19;20629;-73
2022/10/18 05:43:56;;;;;;;8.27;3.55;;;;;13.40;94989.00;;;;7397688;19;20603;-73
2022/10/18 05:46:31;;;;;;;4.07;3.67;;;;;13.40;94990.00;;;;7392811;19;20678;-74
2022/10/18 05:48:58;;;;;;;4.70;3.65;;;;;13.40;94994.00;;;;7396320;19;20129;-74
2022/10/18 05:51:26;;;;;;;7.13;3.40;;;;;13.50;94985.00;;;;7389771;19;20611;-73
2022/10/18 05:53:59;;;;;;;4.90;3.95;;;;;13.70;94989.00;;;;7396223;19;20136;-73
2022/10/18 05:56:27;;;;;;;5.47;3.38;;;;;13.70;94984.00;;;;7394740;19;20137;-74
2022/10/18 05:58:54;;;;;;;4.90;3.65;;;;;13.80;94989.00;;;;7394798;19;20588;-73
2022/10/18 06:01:28;;;;;;;9.57;3.67;;;;;13.90;94985.00;;;;7394023;19;20145;-73
2022/10/18 06:03:56;;;;;;;10.52;4.28;;;;;14.10;94984.00;;;;7395194;19;20672;-73
2022/10/18 06:06:27;;;;;;;7.15;3.67;;;;;14.20;94995.00;;;;7394728;19;20179;-74
2022/10/18 06:09:02;;;;;;;4.38;3.17;;;;;14.10;94988.00;;;;7396928;19;20188;-73
2022/10/18 06:11:30;;;;;;;6.85;3.30;;;;;13.90;94983.00;;;;7394721;19;20125;-73
2022/10/18 06:14:00;;;;;;;4.22;3.40;;;;;14.00;94985.00;;;;7396482;19;20160;-73
2022/10/18 06:16:34;;;;;;;5.75;3.75;;;;;14.10;94988.00;;;;7392523;19;20526;-72
2022/10/18 06:19:03;;;;;;;4.90;3.30;;;;;14.20;94994.00;;;;7394631;19;20137;-73
2022/10/18 06:21:31;;;;;;;5.43;3.40;;;;;14.20;94981.00;;;;7394728;19;20153;-73
2022/10/18 06:24:05;;;;;;;10.88;3.78;;;;;14.20;94985.00;;;;7396174;19;20125;-73
2022/10/18 06:26:32;;;;;;;3.80;3.40;;;;;14.20;94986.00;;;;7394274;19;20196;-74
2022/10/18 06:29:01;;;;;;;6.10;3.50;;;;;14.30;94981.00;;;;7394969;19;20149;-73
2022/10/18 06:31:37;;;;;;;7.28;3.42;;;;;14.40;94982.00;;;;7395259;19;20652;-73
2022/10/18 06:34:04;;;;;;;5.50;4.18;;;;;14.30;94990.00;;;;7395340;19;20144;-75
2022/10/18 06:36:47;;;;;;;4.63;3.85;;;;;14.30;94989.00;;;;7391497;19;20147;-73
2022/10/18 06:39:31;;;;;;;4.18;3.30;;;;;14.30;94987.00;;;;7395593;19;20137;-74
2022/10/18 06:42:05;;;;;;;5.38;3.70;;;;;14.30;94981.00;;;;7394102;19;20220;-74
2022/10/18 06:44:40;;;;;;;4.80;3.10;;;;;14.40;94983.00;;;;7392417;19;20160;-74
2022/10/18 06:47:10;;;;;;;6.20;3.40;;;;;14.50;94982.00;;;;7389781;19;20163;-74
2022/10/18 06:49:38;;;;;;;10.57;3.67;;;;;14.60;94990.00;;;;7396965;19;20144;-74
2022/10/18 06:52:12;;;;;;;7.50;3.33;;;;;14.80;94993.00;;;;7392814;19;20185;-73
2022/10/18 06:54:43;;;;;;;5.97;3.60;;;;;14.90;95005.00;;;;7391836;19;20141;-73
2022/10/18 06:57:12;;;;;;;6.75;2.75;;;;;15.10;95001.00;;;;7392204;19;20137;-73
2022/10/18 06:59:46;;;;;;;3.90;2.80;;;;;15.40;95004.00;;;;7394294;19;20151;-73
2022/10/18 07:02:18;;;;;;;10.88;3.45;;;;;15.60;95004.00;;;;7391614;19;20128;-72
2022/10/18 07:04:45;;;;;;;6.25;2.97;;;;;15.70;95007.00;;;;7392604;19;20495;-73
2022/10/18 07:07:20;;;;;;;7.43;3.40;;;;;15.90;95008.00;;;;7391220;19;20546;-73
2022/10/18 07:09:48;;;;;;;6.57;2.60;;;;;16.20;95009.00;;;;7394457;19;20180;-74
2022/10/18 07:12:16;;;;;;;5.43;2.63;;;;;16.30;95002.00;;;;7389983;19;20686;-74
2022/10/18 07:14:50;;;;;;;6.75;3.00;;;;;16.40;95001.00;;;;7393609;19;20132;-74
2022/10/18 07:17:18;;;;;;;4.43;2.55;;;;;16.60;95006.00;;;;7391880;19;20704;-74
2022/10/18 07:19:45;;;;;;;7.53;2.88;;;;;16.70;95006.00;;;;7396155;19;20660;-74
2022/10/18 07:22:19;;;;;;;5.15;3.00;;;;;16.70;95001.00;;;;7391033;19;20149;-73
2022/10/18 07:24:47;;;;;;;6.72;2.67;;;;;16.80;95006.00;;;;7392434;19;20463;-74
2022/10/18 07:27:14;;;;;;;3.30;2.42;;;;;16.80;95011.00;;;;7389969;19;20136;-73
2022/10/18 07:29:48;;;;;;;3.58;2.60;;;;;16.80;95011.00;;;;7386847;19;20235;-73
2022/10/18 07:32:16;;;;;;;5.13;2.70;;;;;16.80;95014.00;;;;7387085;19;20129;-74
2022/10/18 07:34:44;;;;;;;5.75;2.50;;;;;16.80;95013.00;;;;7385362;19;20200;-73
2022/10/18 07:37:18;;;;;;;5.10;2.88;;;;;16.80;95012.00;;;;7386825;19;20124;-74
2022/10/18 07:39:46;;;;;;;4.18;2.42;;;;;16.80;95018.00;;;;7386990;19;20266;-74
2022/10/18 07:42:13;;;;;;;4.97;2.70;;;;;16.70;95025.00;;;;7387371;19;20171;-74
2022/10/18 07:44:47;;;;;;;6.00;2.40;;;;;16.90;95023.00;;;;7388409;19;20667;-73
2022/10/18 07:47:17;;;;;;;5.63;2.67;;;;;17.00;95030.00;;;;7391498;19;20654;-74
2022/10/18 07:49:45;;;;;;;6.55;2.60;;;;;17.00;95041.00;;;;7394501;19;20611;-73
2022/10/18 07:52:19;;;;;;;9.75;2.72;;;;;17.10;95034.00;;;;7390375;19;20180;-74
2022/10/18 07:54:46;;;;;;;4.78;2.42;;;;;17.20;95037.00;;;;7390599;19;20148;-72
2022/10/18 07:57:34;;;;;;;3.45;2.28;;;;;17.40;95035.00;;;;7389868;19;20167;-74
2022/10/18 08:00:10;;;;;;;4.93;2.55;;;;;17.50;95047.00;;;;7389489;19;20614;-74
2022/10/18 08:02:38;;;;;;;3.42;2.30;;;;;17.50;95048.00;;;;7390129;19;20158;-73
2022/10/18 08:05:05;;;;;;;2.70;2.47;;;;;17.50;95054.00;;;;7390718;19;20280;-74
2022/10/18 08:07:40;;;;;;;4.72;2.67;;;;;17.60;95047.00;;;;7390749;19;20591;-73
2022/10/18 08:10:09;;;;;;;4.90;2.47;;;;;17.60;95042.00;;;;7389351;19;20608;-74
2022/10/18 08:12:37;;;;;;;7.55;2.95;;;;;17.70;95040.00;;;;7387969;19;20193;-74
2022/10/18 08:15:11;;;;;;;3.95;2.60;;;;;17.80;95039.00;;;;7391026;19;20607;-74
2022/10/18 08:17:39;;;;;;;8.93;2.55;;;;;18.00;95047.00;;;;7390032;19;20141;-74
2022/10/18 08:20:07;;;;;;;5.43;2.53;;;;;18.40;95040.00;;;;7391455;19;20133;-73
2022/10/18 08:22:57;;;;;;;6.18;2.47;;;;;18.90;95030.00;;;;7388840;19;20159;-73
2022/10/18 08:25:27;;;;;;;6.57;2.63;;;;;19.80;95032.00;;;;7392979;19;20584;-74
2022/10/18 08:28:21;;;;;;;4.45;2.20;;;;;20.20;95032.00;;;;7388426;19;20491;-74
2022/10/18 08:30:48;;;;;;;3.85;2.00;;;;;19.70;95044.00;;;;7399245;19;20125;-73
2022/10/18 08:33:23;;;;;;;6.18;2.47;;;;;19.30;95034.00;;;;7396614;19;20177;-73
2022/10/18 08:35:58;;;;;;;7.07;2.40;;;;;20.20;95033.00;;;;7399843;19;20160;-73
2022/10/18 08:38:36;;;;;;;4.68;2.63;;;;;21.30;95025.00;;;;7395140;19;20186;-73
2022/10/18 08:41:29;;;;;;;6.25;2.35;;;;;21.10;95028.00;;;;7396855;19;20133;-72
2022/10/18 08:44:19;;;;;;;6.25;2.55;;;;;22.20;95027.00;;;;7398399;19;20664;-73
2022/10/18 08:46:55;;;;;;;6.07;2.10;;;;;22.30;95028.00;;;;7397252;19;20133;-75
2022/10/18 08:49:58;;;;;;;4.47;2.38;;;;;21.90;95030.00;;;;7397082;19;20125;-73
2022/10/18 08:52:47;;;;;;;4.93;2.35;;;;;22.30;95032.00;;;;7392024;19;20654;-73
2022/10/18 08:55:35;;;;;;;4.10;2.13;;;;;21.90;95037.00;;;;7398183;19;20129;-73
2022/10/18 08:58:16;;;;;;;3.63;2.28;;;;;22.60;95035.00;;;;7397506;19;20174;-73
2022/10/18 09:01:16;;;;;;;4.68;2.08;;;;;22.70;95027.00;;;;7394666;19;20152;-72
2022/10/18 09:03:58;;;;;;;6.28;2.13;;;;;22.10;95037.00;;;;7397819;19;20176;-74
2022/10/18 09:06:51;;;;;;;8.15;2.20;;;;;22.40;95030.00;;;;7391942;19;20151;-75
2022/10/18 09:09:42;;;;;;;3.83;2.33;;;;;22.60;95042.00;;;;7393472;19;20608;-74
2022/10/18 09:12:43;;;;;;;2.95;2.22;;;;;21.20;95044.00;;;;7394215;19;20650;-74
2022/10/18 09:15:40;;;;;;;5.32;2.40;;;;;21.30;95040.00;;;;7395458;19;20129;-75
2022/10/18 09:18:27;;;;;;;4.15;2.25;;;;;21.90;95047.00;;;;7392019;19;20143;-76
2022/10/18 09:20:58;;;;;;;2.95;2.33;;;;;21.40;95064.00;;;;7395393;19;20144;-73
2022/10/18 09:24:12;;;;;;;5.75;2.53;;;;;21.80;95056.00;;;;7397289;19;20151;-73
2022/10/18 09:26:47;;;;;;;5.55;2.53;;;;;21.70;95060.00;;;;7391785;19;20619;-74
2022/10/18 09:30:01;;;;;;;4.93;2.30;;;;;22.20;95058.00;;;;7392506;19;20149;-75
2022/10/18 09:32:46;;;;;;;8.32;2.50;;;;;22.20;95059.00;;;;7393815;19;20667;-75
2022/10/18 09:36:03;;;;;;;5.53;2.08;;;;;21.70;95064.00;;;;7397006;19;20475;-74
2022/10/18 09:38:48;;;;;;;4.50;2.28;;;;;21.30;95066.00;;;;7393728;19;20548;-74
2022/10/18 09:41:40;;;;;;;4.07;2.28;;;;;21.90;95065.00;;;;7395089;19;20180;-75
2022/10/18 09:44:36;;;;;;;5.07;2.40;;;;;21.50;95067.00;;;;7394251;19;20140;-75
2022/10/18 09:47:21;;;;;;;5.63;2.72;;;;;21.90;95063.00;;;;7391212;19;20636;-74
2022/10/18 09:50:08;;;;;;;3.28;2.10;;;;;21.40;95054.00;;;;7393100;19;20137;-72
2022/10/18 09:53:05;;;;;;;2.65;1.80;;;;;21.90;95068.00;;;;7390985;19;20181;-73
2022/10/18 09:55:38;;;;;;;4.45;2.03;;;;;21.70;95055.00;;;;7396865;19;20488;-73
2022/10/18 09:58:13;;;;;;;4.70;2.00;;;;;21.70;95062.00;;;;7395675;19;20136;-74
2022/10/18 10:00:50;;;;;;;6.80;2.10;;;;;22.20;95061.00;;;;7393497;19;20132;-74
2022/10/18 10:03:27;;;;;;;3.25;1.90;;;;;22.30;95060.00;;;;7396078;19;20139;-73
2022/10/18 10:06:12;;;;;;;5.22;2.10;;;;;23.00;95063.00;;;;7396533;19;20156;-74
2022/10/18 10:08:56;;;;;;;4.70;1.73;;;;;23.10;95057.00;;;;7390961;19;20513;-73
2022/10/18 10:11:32;;;;;;;5.22;1.83;;;;;22.60;95052.00;;;;7392841;19;20636;-75
2022/10/18 10:14:13;;;;;;;9.35;2.22;;;;;23.10;95058.00;;;;7396374;19;20132;-74
2022/10/18 10:17:19;;;;;;;8.02;2.72;;;;;22.60;95051.00;;;;7393677;19;20133;-75
2022/10/18 10:20:14;;;;;;;3.40;1.80;;;;;22.80;95075.00;;;;7399102;19;20128;-73
2022/10/18 10:22:43;;;;;;;3.42;1.85;;;;;22.20;95073.00;;;;7393473;19;20160;-75
2022/10/18 10:25:23;;;;;;;3.88;1.88;;;;;21.40;95076.00;;;;7394959;19;20193;-73
2022/10/18 10:27:51;;;;;;;3.05;2.13;;;;;21.70;95068.00;;;;7397852;19;20133;-76
2022/10/18 10:30:29;;;;;;;4.53;1.70;;;;;21.60;95094.00;;;;7392376;19;20152;-74
2022/10/18 10:33:04;;;;;;;6.68;2.72;;;;;20.90;95096.00;;;;7396091;19;20165;-75
2022/10/18 10:35:40;;;;;;;3.20;2.00;;;;;20.60;95094.00;;;;7395023;19;20129;-75
2022/10/18 10:38:23;;;;;;;3.47;1.88;;;;;20.80;95093.00;;;;7394182;19;20133;-75
2022/10/18 10:40:51;;;;;;;6.07;1.63;;;;;21.40;95078.00;;;;7394566;19;20156;-73
2022/10/18 10:43:40;;;;;;;8.02;1.90;;;;;22.20;95080.00;;;;7392622;19;20144;-75
2022/10/18 10:46:13;;;;;;;3.13;1.90;;;;;22.30;95078.00;;;;7396498;19;20179;-73
2022/10/18 10:48:55;;;;;;;5.45;1.88;;;;;22.30;95079.00;;;;7394424;19;20476;-75
2022/10/18 10:51:43;;;;;;;4.25;1.95;;;;;22.50;95072.00;;;;7389798;19;20176;-76
2022/10/18 10:54:37;;;;;;;7.25;1.95;;;;;23.00;95076.00;;;;7394842;19;20137;-75
2022/10/18 10:57:13;;;;;;;3.05;2.00;;;;;22.80;95064.00;;;;7393293;19;20148;-76
2022/10/18 10:59:50;;;;;;;3.70;2.38;;;;;22.60;95072.00;;;;7387203;19;20615;-75
2022/10/18 11:02:31;;;;;;;2.65;1.92;;;;;22.30;95064.00;;;;7393926;19;20137;-75
2022/10/18 11:05:24;;;;;;;5.72;1.98;;;;;22.10;95070.00;;;;7392656;19;20149;-75
2022/10/18 11:07:57;;;;;;;4.80;1.80;;;;;21.70;95102.00;;;;7392179;19;20135;-74
2022/10/18 11:10:37;;;;;;;4.47;2.10;;;;;21.80;95093.00;;;;7390643;19;20148;-73
2022/10/18 11:13:26;;;;;;;7.43;2.05;;;;;22.00;95091.00;;;;7392439;19;20503;-75
2022/10/18 11:16:13;;;;;;;6.35;2.15;;;;;22.40;95068.00;;;;7394102;19;20144;-75
2022/10/18 11:18:46;;;;;;;3.42;1.75;;;;;23.20;95072.00;;;;7393343;19;20128;-75
2022/10/18 11:21:27;;;;;;;4.35;2.33;;;;;23.30;95072.00;;;;7390770;19;20494;-75
2022/10/18 11:23:56;;;;;;;3.78;2.20;;;;;23.00;95080.00;;;;7394084;19;20168;-75
2022/10/18 11:26:48;;;;;;;3.45;1.75;;;;;22.80;95073.00;;;;7390790;19;20156;-74
2022/10/18 11:29:20;;;;;;;7.95;2.10;;;;;21.60;95097.00;;;;7389786;19;20145;-74
2022/10/18 11:32:19;;;;;;;7.28;2.20;;;;;21.60;95084.00;;;;7394543;19;20207;-75
2022/10/18 11:34:56;;;;;;;3.63;1.75;;;;;21.90;95104.00;;;;7392320;19;20471;-76
2022/10/18 11:38:14;;;;;;;2.85;1.90;;;;;22.10;95064.00;;;;7395384;19;20149;-76
2022/10/18 11:41:11;;;;;;;3.13;1.95;;;;;22.80;95066.00;;;;7391786;19;20491;-74
2022/10/18 11:44:00;;;;;;;3.42;2.00;;;;;22.80;95061.00;;;;7391478;19;20132;-74
2022/10/18 11:46:39;;;;;;;3.53;2.08;;;;;23.30;95060.00;;;;7391409;19;20615;-75
2022/10/18 11:49:26;;;;;;;3.20;2.00;;;;;24.10;95061.00;;;;7393655;19;20128;-75
2022/10/18 11:52:24;;;;;;;4.07;2.03;;;;;24.80;95045.00;;;;7391809;19;20619;-75
2022/10/18 11:55:36;;;;;;;4.88;2.35;;;;;24.50;95047.00;;;;7392972;19;20144;-74
2022/10/18 11:58:27;;;;;;;3.63;2.10;;;;;24.20;95040.00;;;;7393917;19;20519;-75
2022/10/18 12:01:31;;;;;;;4.93;1.92;;;;;25.00;95047.00;;;;7391398;19;20618;-74
2022/10/18 12:04:03;;;;;;;6.22;2.20;;;;;24.90;95035.00;;;;7400761;19;20125;-76
2022/10/18 12:06:39;;;;;;;7.05;1.92;;;;;25.10;95041.00;;;;7399903;19;20145;-74
2022/10/18 12:09:36;;;;;;;5.75;1.80;;;;;23.80;95038.00;;;;7397379;19;20628;-75
2022/10/18 12:12:23;;;;;;;4.00;1.45;;;;;25.00;95035.00;;;;7397821;19;20144;-74
2022/10/18 12:14:56;;;;;;;1.83;1.70;;;;;25.10;95049.00;;;;7398712;19;20613;-73
2022/10/18 12:17:30;;;;;;;4.47;2.22;;;;;24.70;95048.00;;;;7400836;19;20151;-75
2022/10/18 12:20:44;;;;;;;3.13;2.03;;;;;23.90;95053.00;;;;7397883;19;20616;-74
2022/10/18 12:23:28;;;;;;;5.28;1.60;;;;;24.00;95046.00;;;;7399431;19;20571;-75
2022/10/18 12:26:01;;;;;;;3.45;1.77;;;;;24.20;95045.00;;;;7400631;19;20640;-75
2022/10/18 12:28:52;;;;;;;4.38;2.17;;;;;24.00;95042.00;;;;7395768;19;20159;-76
2022/10/18 12:31:29;;;;;;;5.50;1.70;;;;;24.00;95046.00;;;;7398201;19;20704;-73
2022/10/18 12:34:33;;;;;;;3.05;1.73;;;;;23.80;95054.00;;;;7400532;19;20525;-74
2022/10/18 12:37:20;;;;;;;4.90;2.10;;;;;22.00;95071.00;;;;7399431;19;20215;-74
2022/10/18 12:40:24;;;;;;;4.32;2.03;;;;;22.30;95066.00;;;;7398462;19;20137;-74
2022/10/18 12:43:09;;;;;;;5.15;1.98;;;;;22.70;95069.00;;;;7385820;19;20152;-75
2022/10/18 12:45:58;;;;;;;3.63;2.03;;;;;22.50;95054.00;;;;7399728;19;20142;-75
2022/10/18 12:48:37;;;;;;;4.18;2.05;;;;;21.50;95065.00;;;;7398564;19;20156;-73
2022/10/18 12:51:16;;;;;;;6.00;2.00;;;;;22.30;95053.00;;;;7397058;19;20236;-74
2022/10/18 12:53:47;;;;;;;5.35;2.10;;;;;21.90;95062.00;;;;7397583;19;20137;-74
2022/10/18 12:56:28;;;;;;;4.75;1.80;;;;;22.80;95055.00;;;;7398404;19;20762;-75
2022/10/18 12:59:16;;;;;;;6.00;1.90;;;;;23.00;95054.00;;;;7400596;19;20128;-76
2022/10/18 13:01:57;;;;;;;6.25;1.85;;;;;22.90;95053.00;;;;7397889;19;20170;-77
2022/10/18 13:04:27;;;;;;;4.60;2.00;;;;;22.50;95053.00;;;;7399608;19;20128;-74
2022/10/18 13:07:04;;;;;;;4.30;1.77;;;;;21.90;95054.00;;;;7398083;19;20129;-75
2022/10/18 13:09:38;;;;;;;4.95;1.83;;;;;22.30;95063.00;;;;7398436;19;20137;-75